Flight Track Log - Related Links

Times and Time Zones

All times are in EDT time to prevent confusion due to time zone crossing. See the ASQ6041 flight status page for this flight to view local times or setup timezone preferences in your user account.

Time Position Orientation Groundspeed Altitude Reporting Facility
EDT Latitude Longitude Course Direction KTS MPH feet Rate Location/Type
Sun 01:28:22 PM 39.8333 -104.7500 251° West 197 227 6,800  Level Denver TRACON
Sun 01:29:22 PM 39.8167 -104.8333 255° West 260 299 8,100 1,722 Climbing Denver TRACON
Sun 01:30:10 PM 39.8142 -104.9061 267° West 277 319 9,900 1,800 Climbing Denver Center
Sun 01:31:00 PM 39.7245 -105.0768 247° West  Level FlightAware Approximate
Sun 01:31:12 PM 39.8133 -105.0236 270° West 301 346 11,400  Level Denver Center
Sun 01:32:00 PM 39.6907 -105.1779 247° West  Level FlightAware Approximate
Sun 01:32:14 PM 39.8133 -105.1406 270° West 323 372 14,300  Level Denver Center
Sun 01:33:00 PM 39.6483 -105.2729 251° West  Level FlightAware Approximate
Sun 01:33:16 PM 39.8167 -105.2600 272° West 311 358 16,500  Level Denver Center
Sun 01:34:18 PM 39.8172 -105.3739 270° West 313 360 18,100 1,306 Climbing Denver Center
Sun 01:35:20 PM 39.8011 -105.5039 261° West 338 389 19,200 1,016 Climbing Denver Center
Sun 01:36:22 PM 39.7869 -105.6333 262° West 361 415 20,200 1,113 Climbing Denver Center
Sun 01:37:24 PM 39.7083 -105.7367 225° Southwest 367 422 21,500 1,210 Climbing Denver Center
Sun 01:38:26 PM 39.6275 -105.8233 220° Southwest 377 434 22,700 1,161 Climbing Denver Center
Sun 01:39:28 PM 39.5467 -105.9086 219° Southwest 376 433 23,900 624 Climbing Denver Center
Sun 01:40:31 PM 39.4625 -105.9983 219° Southwest 390 449 24,000 48 Climbing Denver Center
Sun 01:41:33 PM 39.3719 -106.0911 218° Southwest 411 473 24,000  Level Denver Center
Sun 01:42:35 PM 39.2597 -106.1781 211° Southwest 411 473 24,000  Level Denver Center
Sun 01:43:37 PM 39.1772 -106.2739 222° Southwest 415 478 24,000 -532 Level Denver Center
Sun 01:44:39 PM 39.0889 -106.3639 218° Southwest 419 482 22,900 -1,500 Descending Denver Center
Sun 01:45:41 PM 38.9861 -106.4694 219° Southwest 421 484 20,900 -1,790 Descending Denver Center
Sun 01:46:43 PM 38.9067 -106.5511 219° Southwest 402 463 19,200 -1,403 Descending Denver Center
Sun 01:47:45 PM 38.8331 -106.6272 219° Southwest 352 405 18,000 -581 Descending Denver Center
Sun 01:48:47 PM 38.7519 -106.6867 210° Southwest 334 384 18,000  Level Denver Center
Sun 01:49:49 PM 38.6539 -106.7342 201° Southwest 316 364 18,000 -339 Level Denver Center
Sun 01:50:51 PM 38.5878 -106.7678 202° Southwest 270 311 17,300 -532 Descending Denver Center
Sun 01:51:53 PM 38.5322 -106.8128 212° Southwest 249 287 16,900 -1,113 Descending Denver Center
Sun 01:52:55 PM 38.4878 -106.8728 227° Southwest 237 273 15,000 -1,839 Descending Denver Center
Sun 01:54:00 PM 38.5339 -106.9330 314° West  Level Estimated

Login

Don't have an account? Register now (free) for customized features, flight alerts, and more!